Time;durP1;ratioP1;P1;durP2;ratioP2;P2;SDS_P1;SDS_P2;PMS_P1;PMS_P2;Temp;Humidity;BMP_temperature;BMP_pressure;BME280_temperature;BME280_humidity;BME280_pressure;Samples;Min_cycle;Max_cycle;Signal;HPM_P1;HPM_P2
2022/12/10 00:01:13;;;;;;;61.38;25.35;;;1.20;99.90;;;;;;5013777;28;20403;-83
2022/12/10 00:03:39;;;;;;;51.53;24.67;;;1.20;99.90;;;;;;5013823;28;20129;-85
2022/12/10 00:06:10;;;;;;;54.65;25.35;;;1.20;99.90;;;;;;4997266;28;20113;-83
2022/12/10 00:08:36;;;;;;;63.65;28.45;;;1.30;99.90;;;;;;4997413;28;20059;-83
2022/12/10 00:11:08;;;;;;;58.30;26.52;;;1.20;99.90;;;;;;4997235;28;20061;-84
2022/12/10 00:13:35;;;;;;;55.67;24.33;;;1.20;99.90;;;;;;5013821;28;20470;-84
2022/12/10 00:16:02;;;;;;;58.67;28.30;;;1.20;99.90;;;;;;4996981;28;20030;-83
2022/12/10 00:18:27;;;;;;;61.67;27.02;;;1.20;99.90;;;;;;5014937;28;20489;-83
2022/12/10 00:20:53;;;;;;;55.58;26.10;;;1.20;99.90;;;;;;4997573;28;20038;-83
2022/12/10 00:23:19;;;;;;;54.40;25.08;;;1.20;99.90;;;;;;4965316;28;20080;-83
2022/12/10 00:25:45;;;;;;;55.08;27.50;;;1.20;99.90;;;;;;4981402;28;20030;-82
2022/12/10 00:28:10;;;;;;;55.25;25.83;;;1.20;99.90;;;;;;4966103;28;20125;-81
2022/12/10 00:30:37;;;;;;;56.17;27.27;;;1.10;99.90;;;;;;4997460;28;20026;-83
2022/12/10 00:33:02;;;;;;;52.65;26.17;;;1.10;99.90;;;;;;5013084;28;20022;-82
2022/12/10 00:35:28;;;;;;;52.63;26.05;;;1.10;99.90;;;;;;4965874;28;20117;-81
2022/12/10 00:37:53;;;;;;;54.10;26.02;;;1.00;99.90;;;;;;4998401;28;20030;-82
2022/12/10 00:40:19;;;;;;;61.75;26.77;;;1.00;99.90;;;;;;4998302;28;20034;-83
2022/12/10 00:42:45;;;;;;;56.72;25.83;;;1.00;99.90;;;;;;4997488;28;20033;-83
2022/12/10 00:45:10;;;;;;;54.53;26.50;;;1.00;99.90;;;;;;5013716;28;20053;-82
2022/12/10 00:47:36;;;;;;;56.08;26.73;;;1.00;99.90;;;;;;4997052;28;20087;-83
2022/12/10 00:50:01;;;;;;;58.72;25.00;;;1.00;99.90;;;;;;4996695;28;20057;-83
2022/12/10 00:52:27;;;;;;;56.95;25.90;;;1.00;99.90;;;;;;4980528;28;20040;-83
2022/12/10 00:54:53;;;;;;;55.05;26.27;;;1.00;99.90;;;;;;4996963;28;20486;-83
2022/12/10 00:57:18;;;;;;;55.78;26.10;;;0.90;99.90;;;;;;4997231;28;20029;-83
2022/12/10 00:59:44;;;;;;;55.10;26.58;;;0.90;99.90;;;;;;5002793;28;20085;-83
2022/12/10 01:02:09;;;;;;;50.42;24.70;;;0.90;99.90;;;;;;5016720;28;20030;-84
2022/12/10 01:04:35;;;;;;;61.70;27.77;;;0.90;99.90;;;;;;5016327;28;20026;-83
2022/12/10 01:07:01;;;;;;;55.20;24.27;;;0.90;99.90;;;;;;5002415;28;20064;-83
2022/12/10 01:09:29;;;;;;;58.08;27.23;;;0.90;99.90;;;;;;4998581;28;20033;-83
2022/12/10 01:11:56;;;;;;;57.08;27.88;;;0.90;99.90;;;;;;5013989;28;20486;-83
2022/12/10 01:14:24;;;;;;;56.90;25.08;;;0.90;99.90;;;;;;5015306;28;20030;-82
2022/12/10 01:16:54;;;;;;;52.45;25.88;;;0.90;99.90;;;;;;5013868;28;20482;-87
2022/12/10 01:19:20;;;;;;;55.03;25.05;;;0.80;99.90;;;;;;5014148;28;20026;-83
2022/12/10 01:21:50;;;;;;;55.60;26.77;;;0.80;99.90;;;;;;4996858;28;20033;-82
2022/12/10 01:24:16;;;;;;;53.80;26.65;;;0.90;99.90;;;;;;5013314;28;20057;-82
2022/12/10 01:26:42;;;;;;;54.97;24.63;;;0.90;99.90;;;;;;5012925;28;20033;-83
2022/12/10 01:29:08;;;;;;;55.08;24.83;;;0.90;99.90;;;;;;4996446;28;20120;-83
2022/12/10 01:31:36;;;;;;;53.80;26.48;;;0.80;99.90;;;;;;4996629;28;20058;-83
2022/12/10 01:34:03;;;;;;;56.92;26.08;;;0.80;99.90;;;;;;5012452;28;20099;-82
2022/12/10 01:36:35;;;;;;;55.95;26.60;;;0.80;99.90;;;;;;5012815;28;20033;-83
2022/12/10 01:39:02;;;;;;;50.92;24.83;;;0.80;99.90;;;;;;5013821;28;20022;-83
2022/12/10 01:41:32;;;;;;;58.00;26.33;;;0.80;99.90;;;;;;4980406;28;20125;-83
2022/12/10 01:44:03;;;;;;;53.75;25.65;;;0.80;99.90;;;;;;4996339;28;20105;-83
2022/12/10 01:46:49;;;;;;;57.67;27.10;;;0.80;99.90;;;;;;4998225;28;20030;-83
2022/12/10 01:49:19;;;;;;;56.25;27.00;;;0.80;99.90;;;;;;5016141;28;20037;-82
2022/12/10 01:51:48;;;;;;;54.92;26.50;;;0.80;99.90;;;;;;5016112;28;20076;-83
2022/12/10 01:54:18;;;;;;;53.42;25.60;;;0.80;99.90;;;;;;5015960;28;20056;-83
2022/12/10 01:56:47;;;;;;;53.33;25.27;;;0.80;99.90;;;;;;5016220;28;20056;-82
2022/12/10 01:59:13;;;;;;;55.50;25.45;;;0.80;99.90;;;;;;4999825;28;20538;-82
2022/12/10 02:02:05;;;;;;;59.30;26.45;;;0.70;99.90;;;;;;4999373;28;20029;-83
2022/12/10 02:04:37;;;;;;;54.10;26.17;;;0.70;99.90;;;;;;5015979;28;20022;-82
2022/12/10 02:07:30;;;;;;;56.30;26.02;;;0.70;99.90;;;;;;5015001;28;20054;-82
2022/12/10 02:10:04;;;;;;;53.60;24.25;;;0.70;99.90;;;;;;5015861;28;20025;-83
2022/12/10 02:12:39;;;;;;;54.33;23.98;;;0.70;99.90;;;;;;5015658;28;20034;-82
2022/12/10 02:15:26;;;;;;;60.42;26.15;;;0.70;99.90;;;;;;5016518;28;20026;-83
2022/12/10 02:18:00;;;;;;;53.85;25.90;;;0.70;99.90;;;;;;4999304;28;20351;-82
2022/12/10 02:20:41;;;;;;;53.20;25.98;;;0.70;99.90;;;;;;4999240;28;20028;-83
2022/12/10 02:23:20;;;;;;;54.13;25.48;;;0.70;99.90;;;;;;5015867;28;20033;-83
2022/12/10 02:25:59;;;;;;;56.10;26.17;;;0.70;99.90;;;;;;5016779;28;20079;-82
2022/12/10 02:28:36;;;;;;;54.22;25.75;;;0.70;99.90;;;;;;5016461;28;20022;-82
2022/12/10 02:31:03;;;;;;;52.28;24.27;;;0.70;99.90;;;;;;5015076;28;20045;-83
2022/12/10 02:33:31;;;;;;;50.10;23.92;;;0.60;99.90;;;;;;4999229;28;20153;-82
2022/12/10 02:35:59;;;;;;;58.58;28.33;;;0.80;99.90;;;;;;4998686;28;20029;-83
2022/12/10 02:38:30;;;;;;;52.08;25.35;;;0.70;99.90;;;;;;5016400;28;20096;-82
2022/12/10 02:41:04;;;;;;;57.72;27.70;;;0.70;99.90;;;;;;5015403;28;20026;-82
2022/12/10 02:43:31;;;;;;;52.95;25.27;;;0.70;99.90;;;;;;5015495;28;20157;-82
2022/12/10 02:45:59;;;;;;;51.67;24.98;;;0.70;99.90;;;;;;4998769;28;20072;-82
2022/12/10 02:48:25;;;;;;;56.55;26.75;;;0.70;99.90;;;;;;5014894;28;20021;-83
2022/12/10 02:50:51;;;;;;;59.45;25.65;;;0.70;99.90;;;;;;5015157;28;20034;-83
2022/12/10 02:53:17;;;;;;;56.80;26.35;;;0.60;99.90;;;;;;4998223;28;20049;-83
2022/12/10 02:55:48;;;;;;;55.95;26.55;;;0.60;99.90;;;;;;4982380;28;20056;-83
2022/12/10 02:58:25;;;;;;;;;;;0.60;99.90;;;;;;5016069;28;20057;-83
2022/12/10 03:01:03;;;;;;;54.97;25.75;;;0.60;99.90;;;;;;4998934;28;19910;-83
2022/12/10 03:03:44;;;;;;;55.22;25.33;;;0.60;99.90;;;;;;5014928;28;20116;-83
2022/12/10 03:06:18;;;;;;;55.38;25.45;;;0.50;99.90;;;;;;5014815;28;20029;-83
2022/12/10 03:09:05;;;;;;;55.45;26.80;;;0.50;99.90;;;;;;4998328;28;20049;-83
2022/12/10 03:11:31;;;;;;;54.55;25.90;;;0.50;99.90;;;;;;5014629;28;20492;-84
2022/12/10 03:14:05;;;;;;;61.97;26.45;;;0.50;99.90;;;;;;4998060;28;20030;-84
2022/12/10 03:16:44;;;;;;;55.47;25.45;;;0.50;99.90;;;;;;5014067;28;20026;-83
2022/12/10 03:19:13;;;;;;;57.17;26.42;;;0.50;99.90;;;;;;5014418;28;20030;-83
2022/12/10 03:21:41;;;;;;;55.58;26.40;;;0.50;99.90;;;;;;4998032;28;20034;-83
2022/12/10 03:24:11;;;;;;;55.95;24.33;;;0.50;99.90;;;;;;5014275;28;20101;-86
2022/12/10 03:26:39;;;;;;;60.92;28.38;;;0.50;99.90;;;;;;4998076;28;20026;-83
2022/12/10 03:29:08;;;;;;;57.13;25.92;;;0.40;99.90;;;;;;5015537;28;20053;-83
2022/12/10 03:31:35;;;;;;;58.55;26.50;;;0.40;99.90;;;;;;5014425;28;20042;-83
2022/12/10 03:34:02;;;;;;;56.60;26.40;;;0.40;99.90;;;;;;5002711;28;20014;-83
2022/12/10 03:36:29;;;;;;;56.42;25.92;;;0.40;99.90;;;;;;5038178;28;20038;-84
2022/12/10 03:38:55;;;;;;;55.58;26.52;;;0.40;99.90;;;;;;5037709;28;20030;-83
2022/12/10 03:41:21;;;;;;;55.60;27.45;;;0.30;99.90;;;;;;4973483;28;20026;-83
2022/12/10 03:43:58;;;;;;;57.03;24.48;;;0.30;99.90;;;;;;5014223;28;20088;-83
2022/12/10 03:46:26;;;;;;;57.15;26.55;;;0.30;99.90;;;;;;5013840;28;20080;-83
2022/12/10 03:48:52;;;;;;;61.67;26.17;;;0.20;99.90;;;;;;4997627;28;20032;-83
2022/12/10 03:51:18;;;;;;;56.58;24.38;;;0.20;99.90;;;;;;4997489;28;20440;-83
2022/12/10 03:53:43;;;;;;;59.40;26.92;;;0.20;99.90;;;;;;4997478;28;20498;-82
2022/12/10 03:56:09;;;;;;;56.05;26.05;;;0.20;99.90;;;;;;4997454;28;20054;-83
2022/12/10 03:58:35;;;;;;;57.33;26.88;;;0.20;99.90;;;;;;5013432;28;20417;-84
2022/12/10 04:01:02;;;;;;;60.05;27.55;;;0.20;99.90;;;;;;5014771;28;20029;-83
2022/12/10 04:03:27;;;;;;;59.97;26.55;;;0.20;99.90;;;;;;4980754;28;20037;-84
2022/12/10 04:05:53;;;;;;;58.95;27.33;;;0.20;99.90;;;;;;4964872;28;20129;-84
2022/12/10 04:08:19;;;;;;;54.55;25.45;;;0.20;99.90;;;;;;5012312;28;20057;-83
2022/12/10 04:10:44;;;;;;;62.50;26.48;;;0.20;99.90;;;;;;5013565;28;20480;-84
2022/12/10 04:18:40;;;;;;;64.75;27.25;;;0.20;99.90;;;;;;5014793;28;20398;-84
2022/12/10 04:26:52;;;;;;;67.88;29.80;;;0.10;99.90;;;;;;4999178;28;20563;-82
2022/12/10 04:29:29;;;;;;;59.33;26.83;;;0.10;99.90;;;;;;5000547;28;20030;-84
2022/12/10 04:31:56;;;;;;;61.83;27.48;;;0.10;99.90;;;;;;5014229;28;20541;-83
2022/12/10 04:34:27;;;;;;;62.03;28.13;;;0.10;99.90;;;;;;4982005;28;20028;-83
2022/12/10 04:36:53;;;;;;;65.15;27.85;;;0.10;99.90;;;;;;4983324;28;20072;-82
2022/12/10 04:39:19;;;;;;;59.55;25.92;;;0.10;99.90;;;;;;4983158;28;20030;-82
2022/12/10 04:41:47;;;;;;;73.75;29.63;;;0.20;99.90;;;;;;5005248;28;20037;-83
2022/12/10 04:44:13;;;;;;;82.90;31.50;;;0.20;99.90;;;;;;5031860;28;20030;-82
2022/12/10 04:46:38;;;;;;;85.45;34.92;;;0.20;99.90;;;;;;5017921;28;20013;-81
2022/12/10 04:49:05;;;;;;;81.60;33.15;;;0.10;99.90;;;;;;5018637;28;20014;-82
2022/12/10 04:51:31;;;;;;;77.05;31.88;;;0.10;99.90;;;;;;5034969;28;20043;-81
2022/12/10 04:53:57;;;;;;;83.32;33.38;;;0.10;99.90;;;;;;5035041;28;20034;-82
2022/12/10 04:56:23;;;;;;;82.70;31.95;;;0.10;99.90;;;;;;5000849;28;20025;-83
2022/12/10 04:58:49;;;;;;;86.60;33.30;;;0.10;99.90;;;;;;5023024;28;20030;-83
2022/12/10 05:01:15;;;;;;;86.13;33.55;;;0.10;99.90;;;;;;5015074;28;20057;-82
2022/12/10 05:03:41;;;;;;;92.53;35.58;;;0.10;99.90;;;;;;4998065;28;20033;-82
2022/12/10 05:06:09;;;;;;;106.75;36.38;;;0.10;99.90;;;;;;4981966;28;20026;-83
2022/12/10 05:08:37;;;;;;;99.82;35.92;;;0.00;99.90;;;;;;5015062;28;20045;-82
2022/12/10 05:11:11;;;;;;;91.65;33.53;;;0.00;99.90;;;;;;4997552;28;20103;-82
2022/12/10 05:13:37;;;;;;;99.43;37.63;;;0.00;99.90;;;;;;5014035;28;20018;-83
2022/12/10 05:16:05;;;;;;;108.57;37.60;;;-0.10;99.90;;;;;;5014789;28;20454;-83
2022/12/10 05:18:31;;;;;;;113.47;35.67;;;-0.10;99.90;;;;;;5013921;28;20076;-83
2022/12/10 05:21:06;;;;;;;111.20;38.70;;;-0.10;99.90;;;;;;5015510;28;20191;-82
2022/12/10 05:23:33;;;;;;;114.50;36.45;;;-0.10;99.90;;;;;;5017101;28;20022;-83
2022/12/10 05:26:09;;;;;;;113.38;37.80;;;-0.10;99.90;;;;;;4984769;28;20485;-82
2022/12/10 05:28:41;;;;;;;124.40;38.17;;;-0.10;99.90;;;;;;5017916;28;20021;-83
2022/12/10 05:31:21;;;;;;;113.78;38.20;;;-0.20;99.90;;;;;;5016719;28;20026;-84
2022/12/10 05:33:48;;;;;;;114.82;39.03;;;-0.20;99.90;;;;;;5018354;28;20022;-83
2022/12/10 05:36:16;;;;;;;116.10;39.42;;;-0.10;99.90;;;;;;5017540;28;20034;-82
2022/12/10 05:38:42;;;;;;;148.88;36.55;;;-0.10;99.90;;;;;;5016490;28;20029;-82
2022/12/10 05:41:19;;;;;;;105.00;35.75;;;-0.10;99.90;;;;;;5016559;28;20037;-83
2022/12/10 05:43:46;;;;;;;130.90;39.90;;;-0.10;99.90;;;;;;4999971;28;20048;-82
2022/12/10 05:46:20;;;;;;;210.85;38.97;;;-0.20;99.90;;;;;;5000154;28;20022;-82
2022/12/10 05:48:46;;;;;;;108.53;36.03;;;-0.10;99.90;;;;;;5016340;28;20049;-83
2022/12/10 05:51:15;;;;;;;110.53;36.28;;;-0.20;99.90;;;;;;5018062;28;20089;-82
2022/12/10 05:53:41;;;;;;;210.70;36.90;;;-0.20;99.90;;;;;;5016324;28;20117;-82
2022/12/10 05:56:13;;;;;;;128.05;34.75;;;-0.10;99.90;;;;;;5000120;28;20429;-82
2022/12/10 05:58:41;;;;;;;173.80;33.70;;;-0.10;99.90;;;;;;5015958;28;20057;-82
2022/12/10 06:01:19;;;;;;;108.30;35.30;;;-0.20;99.90;;;;;;5016528;28;20033;-82
2022/12/10 06:03:45;;;;;;;120.45;34.70;;;-0.20;99.90;;;;;;5016653;28;20477;-82
2022/12/10 06:06:11;;;;;;;118.60;37.67;;;-0.20;99.90;;;;;;5017795;28;20030;-83
2022/12/10 06:08:37;;;;;;;137.07;36.55;;;-0.20;99.90;;;;;;5018579;28;20046;-84
2022/12/10 06:11:05;;;;;;;263.10;37.78;;;-0.20;99.90;;;;;;5037765;28;20048;-81
2022/12/10 06:13:31;;;;;;;159.40;35.78;;;-0.20;99.90;;;;;;5019005;28;20061;-82
2022/12/10 06:15:56;;;;;;;127.03;37.45;;;-0.20;99.90;;;;;;5019044;28;20378;-81
2022/12/10 06:18:22;;;;;;;166.02;36.00;;;-0.10;99.90;;;;;;4997823;28;20121;-82
2022/12/10 06:20:48;;;;;;;145.65;35.30;;;-0.20;99.90;;;;;;4965795;28;20092;-83
2022/12/10 06:23:14;;;;;;;115.15;36.55;;;-0.10;99.90;;;;;;4981200;28;20552;-82
2022/12/10 06:25:40;;;;;;;134.07;32.60;;;-0.10;99.90;;;;;;4981338;28;20336;-83
2022/12/10 06:28:06;;;;;;;151.70;35.28;;;-0.10;99.90;;;;;;4965582;28;20026;-82
2022/12/10 06:30:33;;;;;;;199.48;35.33;;;-0.10;99.90;;;;;;4996408;28;20087;-83
2022/12/10 06:32:58;;;;;;;170.00;35.10;;;-0.10;99.90;;;;;;4997350;28;20112;-83
2022/12/10 06:35:24;;;;;;;148.40;32.15;;;-0.10;99.90;;;;;;4998722;28;20023;-83
2022/12/10 06:37:50;;;;;;;240.32;38.22;;;-0.20;99.90;;;;;;4980855;28;20057;-84
2022/12/10 06:40:16;;;;;;;323.30;39.08;;;-0.20;99.90;;;;;;4980222;28;20026;-84
2022/12/10 06:42:42;;;;;;;172.13;33.40;;;-0.30;99.90;;;;;;4980011;28;20042;-84
2022/12/10 06:45:09;;;;;;;203.68;34.78;;;-0.30;99.90;;;;;;4979813;28;20103;-84
2022/12/10 06:47:34;;;;;;;146.43;35.42;;;-0.30;99.90;;;;;;4982503;28;20030;-85
2022/12/10 06:50:00;;;;;;;122.75;36.85;;;-0.30;99.90;;;;;;4999351;28;20033;-84
2022/12/10 06:52:26;;;;;;;139.05;36.45;;;-0.30;99.90;;;;;;5015419;28;20417;-83
2022/12/10 06:54:53;;;;;;;124.43;33.75;;;-0.30;99.90;;;;;;4998706;28;20021;-84
2022/12/10 06:57:19;;;;;;;269.80;38.15;;;-0.30;99.90;;;;;;5015383;28;20075;-83
2022/12/10 06:59:45;;;;;;;229.85;37.35;;;-0.30;99.90;;;;;;5015197;28;20484;-84
2022/12/10 07:02:10;;;;;;;236.05;38.70;;;-0.40;99.90;;;;;;5015188;28;20405;-84
2022/12/10 07:04:36;;;;;;;254.82;41.92;;;-0.40;99.90;;;;;;4998556;28;20121;-85
2022/12/10 07:07:02;;;;;;;279.05;38.90;;;-0.40;99.90;;;;;;4984808;28;20030;-84
2022/12/10 07:09:27;;;;;;;210.13;40.65;;;-0.40;99.90;;;;;;4979156;28;20026;-83
2022/12/10 07:11:53;;;;;;;153.65;38.13;;;-0.50;99.90;;;;;;4979128;28;20042;-83
2022/12/10 07:14:19;;;;;;;161.68;38.20;;;-0.50;99.90;;;;;;4979124;28;20041;-84
2022/12/10 07:16:45;;;;;;;141.85;37.92;;;-0.50;99.90;;;;;;4978824;28;20030;-84
2022/12/10 07:19:12;;;;;;;144.82;37.80;;;-0.50;99.90;;;;;;4984273;28;20053;-84
2022/12/10 07:21:39;;;;;;;140.35;35.22;;;-0.50;99.90;;;;;;4998188;28;20076;-85
2022/12/10 07:24:17;;;;;;;144.40;37.88;;;-0.50;99.90;;;;;;5015791;28;20026;-83
2022/12/10 07:26:44;;;;;;;228.18;40.08;;;-0.40;99.90;;;;;;4998046;28;20014;-85
2022/12/10 07:29:14;;;;;;;167.52;36.05;;;-0.40;99.90;;;;;;4998083;28;20026;-84
2022/12/10 07:31:40;;;;;;;127.38;36.38;;;-0.40;99.90;;;;;;5015453;28;20532;-85
2022/12/10 07:34:05;;;;;;;143.90;36.90;;;-0.40;99.90;;;;;;4982340;28;20026;-84
2022/12/10 07:36:31;;;;;;;131.88;33.10;;;-0.40;99.90;;;;;;4982076;28;20026;-84
2022/12/10 07:38:57;;;;;;;165.88;35.10;;;-0.40;99.90;;;;;;4981786;28;20117;-84
2022/12/10 07:41:24;;;;;;;160.77;36.28;;;-0.40;99.90;;;;;;4965965;28;20037;-83
2022/12/10 07:43:50;;;;;;;201.52;35.90;;;-0.40;99.90;;;;;;4996834;28;20057;-84
2022/12/10 07:46:25;;;;;;;261.10;36.80;;;-0.50;99.90;;;;;;5015656;28;20477;-83
2022/12/10 07:48:51;;;;;;;208.43;37.55;;;-0.50;99.90;;;;;;4997898;28;20112;-83
2022/12/10 07:51:20;;;;;;;148.95;33.83;;;-0.50;99.90;;;;;;4979525;28;20479;-86
2022/12/10 07:53:46;;;;;;;143.48;34.75;;;-0.50;99.90;;;;;;4981673;28;20470;-83
2022/12/10 07:56:12;;;;;;;139.00;34.08;;;-0.50;99.90;;;;;;4997747;28;20026;-83
2022/12/10 07:58:42;;;;;;;142.52;35.25;;;-0.50;99.90;;;;;;4962538;28;20057;-83
2022/12/10 08:01:11;;;;;;;193.52;38.60;;;-0.50;99.90;;;;;;4998601;28;20037;-83
2022/12/10 08:03:37;;;;;;;268.70;39.05;;;-0.50;99.90;;;;;;5014901;28;20026;-84
2022/12/10 08:06:09;;;;;;;169.55;40.15;;;-0.40;99.90;;;;;;4981106;28;20034;-84
2022/12/10 08:08:37;;;;;;;198.95;35.88;;;-0.50;99.90;;;;;;4997380;28;20125;-84
2022/12/10 08:11:03;;;;;;;145.98;35.55;;;-0.50;99.90;;;;;;4997815;28;20042;-83
2022/12/10 08:13:29;;;;;;;249.32;37.28;;;-0.50;99.90;;;;;;4997114;28;20026;-83
2022/12/10 08:16:07;;;;;;;159.95;34.13;;;-0.50;99.90;;;;;;4981121;28;20029;-84
2022/12/10 08:18:34;;;;;;;173.13;35.92;;;-0.50;99.90;;;;;;5014527;28;20097;-84
2022/12/10 08:21:05;;;;;;;173.88;34.83;;;-0.40;99.90;;;;;;4997236;28;20117;-84
2022/12/10 08:23:31;;;;;;;211.43;39.25;;;-0.40;99.90;;;;;;4996901;28;20029;-85
2022/12/10 08:25:56;;;;;;;222.23;38.20;;;-0.40;99.90;;;;;;4980526;28;20125;-85
2022/12/10 08:28:22;;;;;;;183.05;36.53;;;-0.40;99.90;;;;;;4964702;28;20026;-84
2022/12/10 08:30:49;;;;;;;191.45;34.65;;;-0.50;99.90;;;;;;4981034;28;20026;-84
2022/12/10 08:33:15;;;;;;;327.30;38.83;;;-0.40;99.90;;;;;;5013808;28;20114;-84
2022/12/10 08:35:41;;;;;;;172.85;37.65;;;-0.40;99.90;;;;;;4995208;28;20061;-84
2022/12/10 08:38:07;;;;;;;169.13;36.58;;;-0.40;99.90;;;;;;4998686;28;20057;-85
2022/12/10 08:40:33;;;;;;;158.20;34.65;;;-0.40;99.90;;;;;;4989278;28;20034;-84
2022/12/10 08:42:58;;;;;;;154.57;34.28;;;-0.30;99.90;;;;;;5037031;28;20098;-89
2022/12/10 08:45:24;;;;;;;166.73;34.75;;;-0.30;99.90;;;;;;5021134;28;20018;-84
2022/12/10 08:47:49;;;;;;;155.02;33.90;;;-0.30;99.90;;;;;;5005356;28;20488;-85
2022/12/10 08:50:15;;;;;;;234.23;36.47;;;-0.20;99.90;;;;;;5009851;28;20537;-84
2022/12/10 08:52:41;;;;;;;197.18;38.08;;;-0.30;99.90;;;;;;5012617;28;20036;-86
2022/12/10 08:55:07;;;;;;;235.13;35.70;;;-0.20;99.90;;;;;;5010966;28;20026;-85
2022/12/10 08:57:33;;;;;;;183.82;37.00;;;-0.20;99.90;;;;;;4980642;28;20092;-84
2022/12/10 08:59:58;;;;;;;187.50;35.00;;;-0.20;99.90;;;;;;4996497;28;20030;-84
2022/12/10 09:02:24;;;;;;;199.43;35.08;;;-0.20;99.90;;;;;;4963626;28;20034;-88
2022/12/10 09:04:50;;;;;;;183.00;33.88;;;-0.20;99.90;;;;;;4980305;28;20052;-87
2022/12/10 09:07:16;;;;;;;169.35;34.40;;;-0.20;99.90;;;;;;5013031;28;20145;-82
2022/12/10 09:09:42;;;;;;;212.70;38.70;;;-0.20;99.90;;;;;;4980640;28;20026;-83
2022/12/10 09:12:07;;;;;;;189.15;35.83;;;-0.20;99.90;;;;;;4996044;28;20037;-83
2022/12/10 09:14:33;;;;;;;208.43;35.63;;;-0.20;99.90;;;;;;4965664;28;20036;-85
2022/12/10 09:16:59;;;;;;;188.73;34.80;;;-0.30;99.90;;;;;;4964806;28;20429;-84
2022/12/10 09:19:24;;;;;;;189.68;37.45;;;-0.30;99.90;;;;;;4980201;28;20030;-84
2022/12/10 09:21:50;;;;;;;220.23;40.33;;;-0.30;99.90;;;;;;4980067;28;20141;-85
2022/12/10 09:24:16;;;;;;;247.00;37.13;;;-0.20;99.90;;;;;;4964026;28;20049;-85
2022/12/10 09:26:41;;;;;;;191.98;38.50;;;-0.20;99.90;;;;;;4996450;28;20351;-83
2022/12/10 09:29:07;;;;;;;245.70;37.30;;;-0.20;99.90;;;;;;4977817;28;20438;-84
2022/12/10 09:31:33;;;;;;;212.68;36.70;;;-0.20;99.90;;;;;;4994043;28;20045;-90
2022/12/10 09:33:58;;;;;;;194.60;38.78;;;-0.20;99.90;;;;;;4977124;28;20035;-83
2022/12/10 09:36:24;;;;;;;205.38;39.75;;;-0.10;99.90;;;;;;4994494;28;20045;-84
2022/12/10 09:38:51;;;;;;;169.18;34.65;;;-0.10;99.90;;;;;;4997832;28;20033;-84
2022/12/10 09:41:39;;;;;;;183.98;35.72;;;-0.10;99.90;;;;;;4979536;28;20113;-85
2022/12/10 09:44:41;;;;;;;210.77;37.15;;;-0.10;99.90;;;;;;5012364;28;20034;-85
2022/12/10 09:47:10;;;;;;;213.70;37.35;;;-0.10;99.90;;;;;;5011197;28;20037;-84
2022/12/10 09:49:57;;;;;;;185.63;37.08;;;-0.10;99.90;;;;;;4989225;28;20037;-85
2022/12/10 09:52:25;;;;;;;196.10;37.67;;;0.00;99.90;;;;;;4994574;28;20053;-82
2022/12/10 09:55:33;;;;;;;228.05;38.63;;;0.00;99.90;;;;;;5001399;28;20029;-84
2022/12/10 09:58:01;;;;;;;217.10;37.08;;;0.00;99.90;;;;;;4968465;28;20034;-84
2022/12/10 10:00:38;;;;;;;183.38;35.15;;;0.00;99.90;;;;;;5014170;28;20025;-84
2022/12/10 10:03:06;;;;;;;174.88;34.70;;;0.00;99.90;;;;;;4997254;28;20026;-82
2022/12/10 10:05:37;;;;;;;192.60;34.80;;;0.00;99.90;;;;;;4996599;28;20026;-84
2022/12/10 10:08:28;;;;;;;172.90;38.47;;;0.10;99.90;;;;;;5010663;28;20375;-86
2022/12/10 10:10:54;;;;;;;183.20;34.35;;;0.10;99.90;;;;;;4990330;28;20073;-84
2022/12/10 10:13:42;;;;;;;192.02;34.70;;;0.00;99.90;;;;;;4999429;28;20072;-85
2022/12/10 10:16:36;;;;;;;237.43;33.95;;;0.00;99.90;;;;;;5017229;28;20026;-85
2022/12/10 10:19:14;;;;;;;200.95;36.55;;;0.00;99.90;;;;;;4997762;28;20058;-84
2022/12/10 10:21:44;;;;;;;215.52;35.03;;;0.00;99.90;;;;;;4996240;28;20023;-84
2022/12/10 10:24:33;;;;;;;283.90;36.05;;;0.00;99.90;;;;;;4996296;28;20022;-84
2022/12/10 10:27:11;;;;;;;196.10;34.65;;;0.00;99.90;;;;;;4996530;28;20467;-87
2022/12/10 10:29:37;;;;;;;192.32;34.17;;;0.00;99.90;;;;;;4996861;28;20031;-84
2022/12/10 10:32:17;;;;;;;238.55;35.88;;;0.00;99.90;;;;;;4955247;28;20048;-84
2022/12/10 10:34:44;;;;;;;217.02;37.85;;;0.00;99.90;;;;;;5011979;28;20500;-84
2022/12/10 10:37:21;;;;;;;212.93;36.05;;;0.00;99.90;;;;;;4984237;28;20029;-84
2022/12/10 10:39:49;;;;;;;228.95;36.67;;;0.00;99.90;;;;;;5015094;28;20029;-85
2022/12/10 10:42:26;;;;;;;245.57;38.58;;;0.10;99.90;;;;;;4998991;28;20049;-86
2022/12/10 10:44:52;;;;;;;226.88;37.75;;;0.10;99.90;;;;;;4998727;28;20040;-85
2022/12/10 10:47:33;;;;;;;202.38;36.97;;;0.10;99.90;;;;;;4981510;28;20466;-85
2022/12/10 10:49:59;;;;;;;196.55;36.38;;;0.10;99.90;;;;;;4997587;28;20022;-86
2022/12/10 10:52:36;;;;;;;187.57;32.97;;;0.20;99.90;;;;;;4980815;28;20030;-86
2022/12/10 10:55:01;;;;;;;205.90;35.10;;;0.20;99.90;;;;;;5013749;28;20093;-87
2022/12/10 10:57:33;;;;;;;192.65;33.92;;;0.20;99.90;;;;;;4998330;28;20121;-84
2022/12/10 11:00:18;;;;;;;180.40;35.75;;;0.20;99.90;;;;;;5015395;28;20072;-85
2022/12/10 11:02:43;;;;;;;140.20;31.80;;;0.20;99.90;;;;;;4990523;28;20042;-84
2022/12/10 11:05:23;;;;;;;210.48;35.83;;;0.30;99.90;;;;;;4998558;28;20109;-83
2022/12/10 11:07:57;;;;;;;211.73;34.20;;;0.30;99.90;;;;;;5009021;28;20034;-84
2022/12/10 11:10:24;;;;;;;146.77;33.42;;;0.30;99.90;;;;;;5011590;28;20050;-84
2022/12/10 11:13:04;;;;;;;180.55;33.70;;;0.30;99.90;;;;;;4983525;28;20053;-85
2022/12/10 11:15:36;;;;;;;199.35;36.10;;;0.40;99.90;;;;;;5015484;28;20378;-83
2022/12/10 11:18:22;;;;;;;169.13;33.58;;;0.40;99.90;;;;;;5026442;28;20026;-84
2022/12/10 11:20:59;;;;;;;199.63;35.83;;;0.40;99.90;;;;;;4997255;28;20029;-84
2022/12/10 11:23:51;;;;;;;174.45;33.35;;;0.40;99.90;;;;;;4996023;28;20026;-86
2022/12/10 11:26:38;;;;;;;181.57;33.85;;;0.40;99.90;;;;;;4996341;28;20018;-85
2022/12/10 11:29:25;;;;;;;157.05;30.73;;;0.40;99.90;;;;;;4996658;28;20054;-85
2022/12/10 11:32:06;;;;;;;154.60;28.83;;;0.40;99.90;;;;;;5011944;28;20030;-86
2022/12/10 11:34:57;;;;;;;158.32;29.08;;;0.40;99.90;;;;;;4995782;28;20034;-85
2022/12/10 11:37:32;;;;;;;166.27;31.20;;;0.40;99.90;;;;;;4999786;28;20172;-85
2022/12/10 11:40:12;;;;;;;182.98;31.27;;;0.40;99.90;;;;;;4995485;28;20097;-84
2022/12/10 11:43:00;;;;;;;210.52;33.08;;;0.40;99.90;;;;;;4994461;28;20081;-89
2022/12/10 11:45:31;;;;;;;173.15;32.35;;;0.40;99.90;;;;;;5007792;28;20489;-84
2022/12/10 11:48:15;;;;;;;;;;;0.30;99.90;;;;;;5006786;28;20023;-84
2022/12/10 11:50:53;;;;;;;203.73;31.17;;;0.30;99.90;;;;;;4993164;28;20323;-85
2022/12/10 11:53:18;;;;;;;210.40;32.75;;;0.20;99.90;;;;;;4993500;28;20030;-85
2022/12/10 11:56:04;;;;;;;174.85;30.95;;;0.20;99.90;;;;;;4990879;28;20043;-86
2022/12/10 11:58:58;;;;;;;238.55;34.45;;;0.20;99.90;;;;;;4976067;28;20026;-85
2022/12/10 12:01:44;;;;;;;227.77;33.85;;;0.20;99.90;;;;;;4991599;28;20082;-85
2022/12/10 12:04:32;;;;;;;215.98;33.92;;;0.20;99.90;;;;;;4978003;28;20019;-85
2022/12/10 12:07:25;;;;;;;216.07;35.97;;;0.30;99.90;;;;;;5002388;28;20022;-85
2022/12/10 12:10:24;;;;;;;198.77;33.60;;;0.30;99.90;;;;;;4974734;28;20554;-84
2022/12/10 12:13:02;;;;;;;345.45;39.92;;;0.20;99.90;;;;;;4991153;28;20042;-84
2022/12/10 12:15:39;;;;;;;245.27;34.42;;;0.20;99.90;;;;;;4998537;28;20025;-84
2022/12/10 12:18:18;;;;;;;239.50;36.83;;;0.20;99.90;;;;;;4994622;28;20057;-84
2022/12/10 12:20:49;;;;;;;209.55;32.10;;;0.20;99.90;;;;;;4992547;28;20026;-84
2022/12/10 12:23:27;;;;;;;225.68;32.25;;;0.30;99.90;;;;;;4994703;28;20117;-85
2022/12/10 12:26:00;;;;;;;220.95;31.70;;;0.30;99.90;;;;;;4995454;28;20026;-85
2022/12/10 12:28:32;;;;;;;254.45;32.60;;;0.30;99.90;;;;;;4986902;28;20470;-84
2022/12/10 12:31:27;;;;;;;221.07;32.17;;;0.30;99.90;;;;;;4981710;28;20026;-83
2022/12/10 12:34:01;;;;;;;213.60;31.60;;;0.20;99.90;;;;;;4986555;28;20045;-83
2022/12/10 12:36:29;;;;;;;196.63;32.95;;;0.20;99.90;;;;;;4995284;28;20023;-83
2022/12/10 12:39:06;;;;;;;218.30;34.78;;;0.30;99.90;;;;;;4990031;28;20046;-83
2022/12/10 12:41:38;;;;;;;204.57;32.50;;;0.30;99.90;;;;;;4999669;28;20109;-83
2022/12/10 12:44:29;;;;;;;155.95;31.33;;;0.30;99.90;;;;;;4993584;28;20027;-83
2022/12/10 12:46:55;;;;;;;181.52;32.03;;;0.30;99.90;;;;;;4993380;28;20112;-83
2022/12/10 12:49:27;;;;;;;160.77;30.90;;;0.40;99.90;;;;;;4993320;28;20060;-83
2022/12/10 12:52:00;;;;;;;173.63;29.10;;;0.40;99.90;;;;;;4993528;28;20054;-84
2022/12/10 12:54:26;;;;;;;139.45;28.58;;;0.50;99.90;;;;;;4994575;28;20037;-88
2022/12/10 12:56:54;;;;;;;184.27;29.55;;;0.50;99.90;;;;;;4993850;28;20031;-83